createdAt,value
2022-07-30T00:00:35.140Z,99035.09
2022-07-30T00:03:01.771Z,99040.09
2022-07-30T00:05:28.485Z,99036.75
2022-07-30T00:07:55.113Z,99030.28
2022-07-30T00:10:23.221Z,99037.72
2022-07-30T00:12:50.061Z,99035.59
2022-07-30T00:15:16.664Z,99026.41
2022-07-30T00:17:43.234Z,99029.59
2022-07-30T00:20:15.893Z,99028.13
2022-07-30T00:22:42.849Z,99026.75
2022-07-30T00:25:09.689Z,99028.66
2022-07-30T00:27:36.306Z,99033.25
2022-07-30T00:30:04.313Z,99031.06
2022-07-30T00:32:30.894Z,99037.81
2022-07-30T00:34:57.473Z,99028.91
2022-07-30T00:37:24.171Z,99028.47
2022-07-30T00:39:50.761Z,99029.63
2022-07-30T00:42:20.779Z,99029.88
2022-07-30T00:44:47.345Z,99029.69
2022-07-30T00:47:13.898Z,99030.19
2022-07-30T00:49:44.283Z,99036.84
2022-07-30T00:52:11.090Z,99040.97
2022-07-30T00:54:37.673Z,99047.94
2022-07-30T00:57:04.396Z,99048.38
2022-07-30T00:59:31.816Z,99053.31
2022-07-30T01:02:01.862Z,99055.97
2022-07-30T01:04:29.117Z,99049.53
2022-07-30T01:06:55.771Z,99046.00
2022-07-30T01:09:22.386Z,99053.97
2022-07-30T01:11:49.090Z,99048.00
2022-07-30T01:14:15.878Z,99053.31
2022-07-30T01:16:43.370Z,99055.22
2022-07-30T01:19:34.077Z,99061.34
2022-07-30T01:22:11.299Z,99053.94
2022-07-30T01:24:41.225Z,99059.00
2022-07-30T01:27:08.767Z,99059.25
2022-07-30T01:29:36.033Z,99051.66
2022-07-30T01:32:03.153Z,99048.94
2022-07-30T01:34:32.086Z,99047.28
2022-07-30T01:36:59.857Z,99051.28
2022-07-30T01:39:27.022Z,99059.59
2022-07-30T01:41:54.790Z,99057.66
2022-07-30T01:44:23.819Z,99052.28
2022-07-30T01:46:51.087Z,99056.59
2022-07-30T01:49:19.974Z,99059.50
2022-07-30T01:51:48.079Z,99055.31
2022-07-30T01:54:14.998Z,99049.63
2022-07-30T01:56:42.832Z,99051.91
2022-07-30T01:59:10.420Z,99056.72
2022-07-30T02:01:36.971Z,99052.16
2022-07-30T02:04:04.642Z,99054.56
2022-07-30T02:06:35.205Z,99058.88
2022-07-30T02:09:07.018Z,99058.69
2022-07-30T02:12:00.844Z,99053.75
2022-07-30T02:14:36.891Z,99051.50
2022-07-30T02:17:04.857Z,99059.38
2022-07-30T02:19:34.628Z,99055.34
2022-07-30T02:22:08.834Z,99059.56
2022-07-30T02:24:37.495Z,99053.75
2022-07-30T02:27:08.144Z,99053.97
2022-07-30T02:29:36.212Z,99048.47
2022-07-30T02:32:06.536Z,99056.00
2022-07-30T02:34:35.092Z,99061.22
2022-07-30T02:37:02.632Z,99056.63
2022-07-30T02:39:31.084Z,99065.09
2022-07-30T02:41:58.253Z,99068.09
2022-07-30T02:44:26.427Z,99067.97
2022-07-30T02:46:53.959Z,99072.19
2022-07-30T02:49:21.430Z,99069.97
2022-07-30T02:51:48.531Z,99071.56
2022-07-30T02:54:17.466Z,99064.94
2022-07-30T02:56:44.715Z,99057.91
2022-07-30T02:59:11.782Z,99065.16
2022-07-30T03:01:38.609Z,99063.28
2022-07-30T03:04:05.891Z,99057.91
2022-07-30T03:06:32.998Z,99052.31
2022-07-30T03:09:00.059Z,99051.94
2022-07-30T03:11:27.238Z,99055.25
2022-07-30T03:13:53.957Z,99047.56
2022-07-30T03:16:22.734Z,99043.53
2022-07-30T03:18:49.921Z,99042.44
2022-07-30T03:21:16.995Z,99044.38
2022-07-30T03:23:44.353Z,99047.28
2022-07-30T03:26:11.763Z,99053.06
2022-07-30T03:28:39.770Z,99056.72
2022-07-30T03:31:07.801Z,99062.31
2022-07-30T03:33:38.863Z,99062.97
2022-07-30T03:36:06.404Z,99064.19
2022-07-30T03:38:33.080Z,99069.22
2022-07-30T03:41:00.192Z,99069.50
2022-07-30T03:43:32.825Z,99068.47
2022-07-30T03:46:02.363Z,99067.75
2022-07-30T03:48:29.599Z,99062.16
2022-07-30T03:50:56.436Z,99066.22
2022-07-30T03:53:27.725Z,99055.09
2022-07-30T03:55:54.791Z,99061.81
2022-07-30T03:58:21.367Z,99063.63
2022-07-30T04:00:49.831Z,99064.53
2022-07-30T04:03:30.833Z,99066.22
2022-07-30T04:05:57.829Z,99077.81
2022-07-30T04:08:24.563Z,99072.88
2022-07-30T04:10:52.498Z,99075.03
2022-07-30T04:13:19.133Z,99072.94
2022-07-30T04:16:37.947Z,99079.09
2022-07-30T04:18:47.835Z,99086.06
2022-07-30T04:21:17.664Z,99085.56
2022-07-30T04:24:04.636Z,99090.59
2022-07-30T04:26:34.408Z,99092.78
2022-07-30T04:29:04.803Z,99092.25
2022-07-30T04:31:40.037Z,99095.72
2022-07-30T04:34:07.470Z,99102.50
2022-07-30T04:36:34.259Z,99105.16
2022-07-30T04:39:01.294Z,99095.00
2022-07-30T04:41:27.982Z,99104.78
2022-07-30T04:43:54.637Z,99104.16
2022-07-30T04:46:23.231Z,99103.31
2022-07-30T04:48:51.787Z,99107.25
2022-07-30T04:51:23.597Z,99108.28
2022-07-30T04:53:51.272Z,99108.09
2022-07-30T04:56:18.642Z,99118.63
2022-07-30T04:58:45.938Z,99112.81
2022-07-30T05:01:17.570Z,99120.38
2022-07-30T05:03:45.105Z,99119.00
2022-07-30T05:06:12.482Z,99118.81
2022-07-30T05:08:39.837Z,99124.59
2022-07-30T05:11:06.418Z,99129.41
2022-07-30T05:13:34.492Z,99131.91
2022-07-30T05:16:05.637Z,99131.38
2022-07-30T05:18:32.257Z,99139.13
2022-07-30T05:20:58.798Z,99143.59
2022-07-30T05:23:25.498Z,99144.03
2022-07-30T05:25:52.038Z,99149.09
2022-07-30T05:28:18.592Z,99156.06
2022-07-30T05:30:45.217Z,99143.13
2022-07-30T05:33:15.752Z,99146.31
2022-07-30T05:35:42.743Z,99152.78
2022-07-30T05:38:09.384Z,99149.31
2022-07-30T05:40:35.954Z,99146.47
2022-07-30T05:43:02.539Z,99151.19
2022-07-30T05:45:29.177Z,99150.66
2022-07-30T05:47:55.760Z,99151.97
2022-07-30T05:50:22.462Z,99150.19
2022-07-30T05:52:49.086Z,99144.44
2022-07-30T05:55:15.689Z,99146.34
2022-07-30T05:57:42.531Z,99149.84
2022-07-30T06:00:11.140Z,99150.38
2022-07-30T06:02:39.629Z,99157.25
2022-07-30T06:05:06.900Z,99155.63
2022-07-30T06:07:33.556Z,99148.53
2022-07-30T06:10:00.529Z,99141.94
2022-07-30T06:12:30.702Z,99139.22
2022-07-30T06:14:58.198Z,99144.44
2022-07-30T06:17:24.817Z,99146.44
2022-07-30T06:19:51.661Z,99151.84
2022-07-30T06:22:21.712Z,99153.22
2022-07-30T06:24:50.754Z,99144.53
2022-07-30T06:27:17.352Z,99151.78
2022-07-30T06:29:44.017Z,99144.13
2022-07-30T06:32:10.706Z,99142.63
2022-07-30T06:34:37.235Z,99138.03
2022-07-30T06:37:04.060Z,99145.09
2022-07-30T06:39:57.052Z,99146.63
2022-07-30T06:42:17.613Z,99152.88
2022-07-30T06:44:44.350Z,99151.69
2022-07-30T06:47:11.459Z,99150.97
2022-07-30T06:49:38.767Z,99154.69
2022-07-30T06:52:05.978Z,99151.97
2022-07-30T06:54:32.931Z,99160.84
2022-07-30T06:56:59.726Z,99151.41
2022-07-30T06:59:27.780Z,99158.75
2022-07-30T07:01:54.505Z,99160.81
2022-07-30T07:04:21.279Z,99155.25
2022-07-30T07:06:47.941Z,99162.69
2022-07-30T07:09:14.508Z,99155.25
2022-07-30T07:11:41.141Z,99149.47
2022-07-30T07:14:07.830Z,99149.19
2022-07-30T07:16:34.542Z,99144.06
2022-07-30T07:19:01.128Z,99150.38
2022-07-30T07:21:27.750Z,99146.97
2022-07-30T07:23:54.408Z,99148.69
2022-07-30T07:26:20.992Z,99148.06
2022-07-30T07:28:47.605Z,99147.66
2022-07-30T07:32:07.154Z,99147.16
2022-07-30T07:34:00.839Z,99139.16
2022-07-30T07:36:27.471Z,99145.19
2022-07-30T07:38:54.059Z,99151.81
2022-07-30T07:41:20.918Z,99142.59
2022-07-30T07:43:47.699Z,99147.41
2022-07-30T07:46:16.772Z,99145.69
2022-07-30T07:49:00.124Z,99148.19
2022-07-30T07:51:34.764Z,99150.75
2022-07-30T07:54:21.758Z,99158.59
2022-07-30T07:56:49.121Z,99151.25
2022-07-30T07:59:15.773Z,99144.38
2022-07-30T08:01:43.991Z,99146.41
2022-07-30T08:04:10.998Z,99142.75
2022-07-30T08:06:37.670Z,99151.72
2022-07-30T08:09:08.137Z,99152.56
2022-07-30T08:11:35.014Z,99142.34
2022-07-30T08:14:01.598Z,99147.72
2022-07-30T08:16:29.374Z,99146.63
2022-07-30T08:18:56.125Z,99137.38
2022-07-30T08:21:22.747Z,99136.81
2022-07-30T08:23:49.515Z,99143.78
2022-07-30T08:26:16.102Z,99130.06
2022-07-30T08:28:43.357Z,99132.34
2022-07-30T08:31:09.999Z,99134.00
2022-07-30T08:33:36.550Z,99139.53
2022-07-30T08:36:09.163Z,99139.13
2022-07-30T08:38:38.300Z,99144.09
2022-07-30T08:41:04.977Z,99141.84
2022-07-30T08:43:31.753Z,99145.72
2022-07-30T08:45:59.104Z,99143.28
2022-07-30T08:48:26.273Z,99145.56
2022-07-30T08:50:53.169Z,99148.56
2022-07-30T08:53:23.399Z,99148.22
2022-07-30T08:55:49.954Z,99155.41
2022-07-30T08:58:29.178Z,99158.13
2022-07-30T09:03:44.511Z,99158.03
2022-07-30T09:06:11.588Z,99159.34
2022-07-30T09:08:38.139Z,99169.59
2022-07-30T09:11:04.700Z,99166.94
2022-07-30T09:13:37.919Z,99176.38
2022-07-30T09:16:06.193Z,99174.53
2022-07-30T09:18:37.967Z,99173.00
2022-07-30T09:21:18.076Z,99178.59
2022-07-30T09:24:06.231Z,99178.19
2022-07-30T09:26:33.622Z,99181.13
2022-07-30T09:29:20.349Z,99183.56
2022-07-30T09:31:58.383Z,99183.50
2022-07-30T09:34:33.541Z,99186.84
2022-07-30T09:37:02.429Z,99186.47
2022-07-30T09:39:40.387Z,99183.84
2022-07-30T09:42:25.879Z,99187.41
2022-07-30T09:44:53.272Z,99189.28
2022-07-30T09:47:33.760Z,99193.94
2022-07-30T09:50:09.684Z,99198.53
2022-07-30T09:52:43.995Z,99200.63
2022-07-30T09:55:16.275Z,99202.66
2022-07-30T09:57:58.825Z,99194.84
2022-07-30T10:00:27.424Z,99202.72
2022-07-30T10:02:54.472Z,99202.28
2022-07-30T10:05:21.630Z,99195.72
2022-07-30T10:07:52.445Z,99189.16
2022-07-30T10:10:21.640Z,99193.25
2022-07-30T10:12:54.438Z,99190.38
2022-07-30T10:15:21.623Z,99186.69
2022-07-30T10:17:49.921Z,99179.09
2022-07-30T10:20:18.012Z,99187.28
2022-07-30T10:22:45.461Z,99172.88
2022-07-30T10:25:23.119Z,99185.22
2022-07-30T10:27:58.105Z,99182.94
2022-07-30T10:30:27.899Z,99187.41
2022-07-30T10:32:57.087Z,99185.06
2022-07-30T10:35:34.625Z,99177.06
2022-07-30T10:38:08.541Z,99179.66
2022-07-30T10:40:39.428Z,99180.72
2022-07-30T10:43:31.818Z,99188.53
2022-07-30T10:46:36.197Z,99185.84
2022-07-30T10:49:19.068Z,99185.50
2022-07-30T10:51:55.270Z,99190.59
2022-07-30T10:54:39.627Z,99192.53
2022-07-30T10:57:22.661Z,99189.50
2022-07-30T11:00:15.647Z,99188.41
2022-07-30T11:03:20.216Z,99193.47
2022-07-30T11:05:50.114Z,99187.72
2022-07-30T11:08:42.470Z,99187.75
2022-07-30T11:12:01.497Z,99191.81
2022-07-30T11:14:48.369Z,99189.53
2022-07-30T11:17:17.085Z,99181.75
2022-07-30T11:20:12.186Z,99191.63
2022-07-30T11:22:44.917Z,99184.97
2022-07-30T11:25:54.671Z,99186.00
2022-07-30T11:28:36.016Z,99183.22
2022-07-30T11:31:10.130Z,99185.03
2022-07-30T11:33:37.164Z,99184.59
2022-07-30T11:36:10.716Z,99184.03
2022-07-30T11:39:06.905Z,99173.41
2022-07-30T11:41:34.103Z,99184.38
2022-07-30T11:44:26.773Z,99181.41
2022-07-30T11:46:53.534Z,99176.06
2022-07-30T11:49:20.671Z,99185.53
2022-07-30T11:51:48.582Z,99196.50
2022-07-30T11:54:15.535Z,99186.41
2022-07-30T11:56:49.738Z,99181.47
2022-07-30T11:59:16.569Z,99183.06
2022-07-30T12:05:38.983Z,99180.03
2022-07-30T12:08:09.301Z,99185.22
2022-07-30T12:11:02.232Z,99193.34
2022-07-30T12:13:45.462Z,99195.47
2022-07-30T12:16:18.580Z,99186.19
2022-07-30T12:18:47.258Z,99190.03
2022-07-30T12:21:18.470Z,99182.47
2022-07-30T12:24:01.571Z,99185.16
2022-07-30T12:26:30.390Z,99185.63
2022-07-30T12:28:59.624Z,99181.22
2022-07-30T12:31:28.973Z,99189.69
2022-07-30T12:33:59.846Z,99186.03
2022-07-30T12:36:33.298Z,99192.16
2022-07-30T12:39:05.066Z,99190.50
2022-07-30T12:41:49.419Z,99204.59
2022-07-30T12:44:46.021Z,99205.81
2022-07-30T12:47:28.164Z,99202.56
2022-07-30T12:50:00.810Z,99209.75
2022-07-30T12:52:33.767Z,99208.13
2022-07-30T12:55:12.479Z,99202.19
2022-07-30T12:58:11.681Z,99204.19
2022-07-30T13:00:52.215Z,99199.91
2022-07-30T13:03:30.851Z,99204.41
2022-07-30T13:05:57.716Z,99203.75
2022-07-30T13:08:56.471Z,99201.50
2022-07-30T13:11:33.560Z,99203.16
2022-07-30T13:14:00.333Z,99199.91
2022-07-30T13:16:33.948Z,99198.44
2022-07-30T13:19:00.835Z,99193.50
2022-07-30T13:21:27.388Z,99192.03
2022-07-30T13:23:53.984Z,99188.44
2022-07-30T13:26:20.601Z,99195.88
2022-07-30T13:28:47.264Z,99189.88
2022-07-30T13:31:14.098Z,99191.25
2022-07-30T13:33:40.805Z,99186.84
2022-07-30T13:36:07.843Z,99194.41
2022-07-30T13:38:34.838Z,99185.78
2022-07-30T13:41:03.021Z,99189.38
2022-07-30T13:43:30.001Z,99182.06
2022-07-30T13:46:01.996Z,99187.16
2022-07-30T13:48:28.650Z,99183.59
2022-07-30T13:50:55.306Z,99200.09
2022-07-30T13:53:21.966Z,99193.06
2022-07-30T13:55:48.654Z,99193.06
2022-07-30T13:58:15.323Z,99182.41
2022-07-30T14:00:45.130Z,99182.31
2022-07-30T14:03:12.083Z,99188.75
2022-07-30T14:05:42.168Z,99192.41
2022-07-30T14:08:10.353Z,99192.41
2022-07-30T14:10:40.043Z,99186.78
2022-07-30T14:13:07.845Z,99197.50
2022-07-30T14:15:34.549Z,99194.22
2022-07-30T14:18:01.275Z,99188.47
2022-07-30T14:20:29.029Z,99193.25
2022-07-30T14:22:56.009Z,99182.88
2022-07-30T14:25:23.166Z,99190.25
2022-07-30T14:27:49.910Z,99182.94
2022-07-30T14:30:16.509Z,99182.84
2022-07-30T14:32:43.119Z,99179.72
2022-07-30T14:35:10.583Z,99182.94
2022-07-30T14:37:40.740Z,99180.16
2022-07-30T14:40:12.103Z,99173.31
2022-07-30T14:42:40.264Z,99176.00
2022-07-30T14:45:10.912Z,99179.44
2022-07-30T14:47:40.479Z,99182.00
2022-07-30T14:50:13.173Z,99182.78
2022-07-30T14:52:41.270Z,99183.47
2022-07-30T14:55:09.251Z,99180.97
2022-07-30T14:57:40.362Z,99181.03
2022-07-30T15:00:11.155Z,99179.44
2022-07-30T15:02:39.186Z,99180.78
2022-07-30T15:05:07.092Z,99181.13
2022-07-30T15:07:34.807Z,99188.50
2022-07-30T15:10:02.679Z,99179.81
2022-07-30T15:12:29.329Z,99178.47
2022-07-30T15:14:56.036Z,99190.88
2022-07-30T15:17:22.679Z,99192.59
2022-07-30T15:19:50.828Z,99191.00
2022-07-30T15:22:21.469Z,99188.72
2022-07-30T15:24:48.959Z,99197.59
2022-07-30T15:27:31.853Z,99189.09
2022-07-30T15:30:01.114Z,99192.22
2022-07-30T15:32:27.987Z,99183.56
2022-07-30T15:34:55.599Z,99189.34
2022-07-30T15:37:22.142Z,99197.19
2022-07-30T15:39:49.089Z,99207.47
2022-07-30T15:42:18.463Z,99199.44
2022-07-30T15:44:48.887Z,99204.47
2022-07-30T15:47:15.835Z,99197.03
2022-07-30T15:49:42.508Z,99204.47
2022-07-30T15:52:09.108Z,99194.44
2022-07-30T15:54:35.881Z,99206.81
2022-07-30T15:57:02.708Z,99205.16
2022-07-30T15:59:30.182Z,99211.31
2022-07-30T16:01:56.992Z,99203.50
2022-07-30T16:04:31.877Z,99207.81
2022-07-30T16:07:03.526Z,99200.88
2022-07-30T16:09:30.600Z,99203.97
2022-07-30T16:11:58.329Z,99203.53
2022-07-30T16:14:25.174Z,99204.16
2022-07-30T16:16:52.818Z,99208.03
2022-07-30T16:19:20.223Z,99203.94
2022-07-30T16:21:46.885Z,99213.00
2022-07-30T16:24:13.494Z,99209.88
2022-07-30T16:26:40.061Z,99201.50
2022-07-30T16:29:09.596Z,99197.16
2022-07-30T16:31:40.033Z,99196.16
2022-07-30T16:34:06.824Z,99206.63
2022-07-30T16:36:33.759Z,99213.41
2022-07-30T16:39:01.389Z,99195.06
2022-07-30T16:41:28.086Z,99202.03
2022-07-30T16:43:54.708Z,99209.59
2022-07-30T16:46:21.347Z,99203.41
2022-07-30T16:48:50.340Z,99210.03
2022-07-30T16:51:17.385Z,99214.56
2022-07-30T16:53:43.982Z,99208.81
2022-07-30T16:56:10.585Z,99207.16
2022-07-30T16:58:37.205Z,99205.91
2022-07-30T17:01:04.213Z,99208.53
2022-07-30T17:03:30.799Z,99207.53
2022-07-30T17:05:57.479Z,99211.06
2022-07-30T17:08:24.552Z,99211.00
2022-07-30T17:10:52.426Z,99213.28
2022-07-30T17:13:19.629Z,99212.88
2022-07-30T17:15:46.874Z,99209.19
2022-07-30T17:18:14.147Z,99212.06
2022-07-30T17:20:40.696Z,99215.59
2022-07-30T17:23:07.964Z,99208.63
2022-07-30T17:25:34.815Z,99211.72
2022-07-30T17:28:02.023Z,99209.22
2022-07-30T17:30:29.566Z,99217.25
2022-07-30T17:32:56.277Z,99209.88
2022-07-30T17:35:23.160Z,99225.28
2022-07-30T17:37:49.866Z,99225.66
2022-07-30T17:40:28.989Z,99225.03
2022-07-30T17:43:04.998Z,99224.88
2022-07-30T17:45:35.002Z,99226.97
2022-07-30T17:48:02.166Z,99227.16
2022-07-30T17:50:29.884Z,99232.53
2022-07-30T17:52:56.709Z,99219.53
2022-07-30T17:55:23.468Z,99219.13
2022-07-30T17:57:50.047Z,99227.38
2022-07-30T18:00:17.119Z,99226.13
2022-07-30T18:02:47.149Z,99222.84
2022-07-30T18:05:16.402Z,99215.88
2022-07-30T18:07:43.997Z,99224.72
2022-07-30T18:10:11.733Z,99218.56
2022-07-30T18:12:38.817Z,99218.75
2022-07-30T18:15:15.558Z,99218.34
2022-07-30T18:17:42.058Z,99210.53
2022-07-30T18:20:09.495Z,99215.88
2022-07-30T18:22:36.126Z,99221.00
2022-07-30T18:25:02.952Z,99219.19
2022-07-30T18:27:37.677Z,99218.34
2022-07-30T18:30:04.614Z,99226.56
2022-07-30T18:32:31.152Z,99220.41
2022-07-30T18:34:57.721Z,99232.78
2022-07-30T18:37:24.274Z,99230.91
2022-07-30T18:39:54.319Z,99235.66
2022-07-30T18:42:20.950Z,99239.53
2022-07-30T18:44:50.438Z,99227.63
2022-07-30T18:47:18.437Z,99227.59
2022-07-30T18:49:48.664Z,99231.13
2022-07-30T18:52:15.465Z,99233.59
2022-07-30T18:54:42.369Z,99237.28
2022-07-30T18:57:14.202Z,99229.47
2022-07-30T18:59:41.526Z,99238.50
2022-07-30T19:02:08.589Z,99231.53
2022-07-30T19:04:36.411Z,99237.28
2022-07-30T19:07:03.192Z,99233.56
2022-07-30T19:09:29.845Z,99240.13
2022-07-30T19:11:56.427Z,99235.19
2022-07-30T19:14:23.240Z,99245.47
2022-07-30T19:16:50.155Z,99238.25
2022-07-30T19:19:25.598Z,99239.44
2022-07-30T19:21:52.173Z,99237.63
2022-07-30T19:24:18.747Z,99249.91
2022-07-30T19:26:45.364Z,99251.84
2022-07-30T19:29:12.460Z,99264.53
2022-07-30T19:31:41.776Z,99263.28
2022-07-30T19:34:10.847Z,99270.94
2022-07-30T19:36:37.920Z,99259.53
2022-07-30T19:39:07.025Z,99269.59
2022-07-30T19:41:40.937Z,99271.63
2022-07-30T19:44:12.197Z,99275.25
2022-07-30T19:46:39.280Z,99279.91
2022-07-30T19:49:08.314Z,99276.66
2022-07-30T19:52:07.398Z,99276.50
2022-07-30T19:54:21.828Z,99279.56
2022-07-30T19:56:48.753Z,99282.00
2022-07-30T19:59:15.818Z,99288.06
2022-07-30T20:01:43.411Z,99288.91
2022-07-30T20:04:11.426Z,99288.00
2022-07-30T20:06:46.228Z,99292.47
2022-07-30T20:09:14.578Z,99288.09
2022-07-30T20:11:45.966Z,99291.84
2022-07-30T20:14:13.370Z,99285.75
2022-07-30T20:16:42.947Z,99284.84
2022-07-30T20:19:12.035Z,99284.38
2022-07-30T20:21:56.790Z,99288.81
2022-07-30T20:24:24.123Z,99293.66
2022-07-30T20:26:52.274Z,99296.75
2022-07-30T20:29:20.754Z,99296.63
2022-07-30T20:31:49.758Z,99292.75
2022-07-30T20:34:18.189Z,99297.25
2022-07-30T20:36:45.422Z,99296.25
2022-07-30T20:39:18.499Z,99297.50
2022-07-30T20:41:46.447Z,99293.00
2022-07-30T20:44:23.241Z,99302.03
2022-07-30T20:46:50.623Z,99302.31
2022-07-30T20:49:23.683Z,99300.66
2022-07-30T20:51:55.766Z,99302.50
2022-07-30T20:54:22.415Z,99305.38
2022-07-30T20:56:50.893Z,99300.59
2022-07-30T20:59:17.764Z,99301.25
2022-07-30T21:01:52.544Z,99302.19
2022-07-30T21:04:23.800Z,99300.94
2022-07-30T21:06:52.670Z,99296.53
2022-07-30T21:09:23.702Z,99302.47
2022-07-30T21:11:53.567Z,99294.63
2022-07-30T21:14:20.462Z,99289.75
2022-07-30T21:16:47.427Z,99294.97
2022-07-30T21:19:16.698Z,99296.78
2022-07-30T21:21:48.235Z,99295.16
2022-07-30T21:24:18.940Z,99300.81
2022-07-30T21:26:48.893Z,99297.38
2022-07-30T21:29:16.517Z,99303.03
2022-07-30T21:32:01.906Z,99303.25
2022-07-30T21:34:35.967Z,99303.91
2022-07-30T21:37:08.895Z,99300.06
2022-07-30T21:39:39.854Z,99306.56
2022-07-30T21:42:07.993Z,99301.06
2022-07-30T21:44:34.814Z,99308.16
2022-07-30T21:47:01.492Z,99309.34
2022-07-30T21:49:28.254Z,99289.88
2022-07-30T21:51:58.457Z,99296.84
2022-07-30T21:54:29.199Z,99289.97
2022-07-30T21:56:58.341Z,99291.03
2022-07-30T21:59:25.440Z,99300.03
2022-07-30T22:01:55.372Z,99290.38
2022-07-30T22:04:22.250Z,99298.47
2022-07-30T22:06:48.858Z,99301.28
2022-07-30T22:09:19.792Z,99291.38
2022-07-30T22:12:00.635Z,99294.13
2022-07-30T22:14:27.527Z,99293.97
2022-07-30T22:16:54.573Z,99294.47
2022-07-30T22:19:21.988Z,99298.19
2022-07-30T22:22:03.570Z,99295.19
2022-07-30T22:24:36.299Z,99298.88
2022-07-30T22:27:13.251Z,99293.19
2022-07-30T22:32:28.504Z,99298.63
2022-07-30T22:34:55.120Z,99298.28
2022-07-30T22:37:25.711Z,99292.34
2022-07-30T22:40:01.738Z,99300.38
2022-07-30T22:42:28.702Z,99295.00
2022-07-30T22:44:55.495Z,99294.31
2022-07-30T22:50:09.932Z,99296.50
2022-07-30T22:55:28.115Z,99294.09
2022-07-30T22:57:56.183Z,99299.72
2022-07-30T23:00:28.262Z,99305.03
2022-07-30T23:02:56.135Z,99296.25
2022-07-30T23:05:22.903Z,99296.97
2022-07-30T23:07:50.657Z,99300.03
2022-07-30T23:10:18.602Z,99298.41
2022-07-30T23:12:30.687Z,99293.56
2022-07-30T23:12:32.790Z,99296.22
2022-07-30T23:12:33.952Z,99292.13
2022-07-30T23:12:51.593Z,99294.09
2022-07-30T23:15:20.072Z,99295.75
2022-07-30T23:17:47.847Z,99294.28
2022-07-30T23:20:20.557Z,99294.41
2022-07-30T23:22:48.458Z,99288.97
2022-07-30T23:25:15.494Z,99291.97
2022-07-30T23:27:42.606Z,99284.19
2022-07-30T23:30:10.967Z,99288.19
2022-07-30T23:32:38.565Z,99285.38
2022-07-30T23:35:06.585Z,99282.69
2022-07-30T23:37:38.098Z,99281.34
2022-07-30T23:40:17.528Z,99291.25
2022-07-30T23:42:44.583Z,99281.22
2022-07-30T23:45:11.423Z,99281.22
2022-07-30T23:47:51.212Z,99276.75
2022-07-30T23:50:25.399Z,99282.06
2022-07-30T23:52:52.597Z,99278.41
2022-07-30T23:55:19.280Z,99289.47
2022-07-30T23:57:45.836Z,99287.06
